sensor_id;sensor_type;location;lat;lon;timestamp;P1;durP1;ratioP1;P2;durP2;ratioP2
30462;SDS011;17256;43.618;25.336;2022-10-16T00:01:15;19.13;;;16.70;;
30462;SDS011;17256;43.618;25.336;2022-10-16T00:03:43;20.00;;;16.57;;
30462;SDS011;17256;43.618;25.336;2022-10-16T00:06:10;18.17;;;15.13;;
30462;SDS011;17256;43.618;25.336;2022-10-16T00:08:37;17.20;;;14.70;;
30462;SDS011;17256;43.618;25.336;2022-10-16T00:11:08;15.47;;;13.90;;
30462;SDS011;17256;43.618;25.336;2022-10-16T00:13:40;15.17;;;13.70;;
30462;SDS011;17256;43.618;25.336;2022-10-16T00:16:07;16.80;;;15.00;;
30462;SDS011;17256;43.618;25.336;2022-10-16T00:18:34;16.40;;;14.77;;
30462;SDS011;17256;43.618;25.336;2022-10-16T00:21:03;17.57;;;15.63;;
30462;SDS011;17256;43.618;25.336;2022-10-16T00:23:30;15.93;;;14.23;;
30462;SDS011;17256;43.618;25.336;2022-10-16T00:25:57;15.73;;;13.97;;
30462;SDS011;17256;43.618;25.336;2022-10-16T00:28:25;22.63;;;15.90;;
30462;SDS011;17256;43.618;25.336;2022-10-16T00:30:52;17.17;;;15.37;;
30462;SDS011;17256;43.618;25.336;2022-10-16T00:33:19;17.30;;;15.60;;
30462;SDS011;17256;43.618;25.336;2022-10-16T00:35:46;18.73;;;16.87;;
30462;SDS011;17256;43.618;25.336;2022-10-16T00:38:12;19.87;;;17.73;;
30462;SDS011;17256;43.618;25.336;2022-10-16T00:40:38;18.30;;;16.37;;
30462;SDS011;17256;43.618;25.336;2022-10-16T00:43:11;19.20;;;17.17;;
30462;SDS011;17256;43.618;25.336;2022-10-16T00:45:58;13.50;;;12.10;;
30462;SDS011;17256;43.618;25.336;2022-10-16T00:48:24;13.00;;;11.67;;
30462;SDS011;17256;43.618;25.336;2022-10-16T00:50:51;12.90;;;9.60;;
30462;SDS011;17256;43.618;25.336;2022-10-16T00:53:17;12.10;;;10.80;;
30462;SDS011;17256;43.618;25.336;2022-10-16T00:55:44;10.70;;;9.70;;
30462;SDS011;17256;43.618;25.336;2022-10-16T00:58:11;10.57;;;9.50;;
30462;SDS011;17256;43.618;25.336;2022-10-16T01:00:37;10.97;;;9.97;;
30462;SDS011;17256;43.618;25.336;2022-10-16T01:03:24;10.50;;;9.23;;
30462;SDS011;17256;43.618;25.336;2022-10-16T01:06:04;10.47;;;9.30;;
30462;SDS011;17256;43.618;25.336;2022-10-16T01:11:33;15.37;;;11.47;;
30462;SDS011;17256;43.618;25.336;2022-10-16T01:14:11;19.20;;;11.67;;
30462;SDS011;17256;43.618;25.336;2022-10-16T01:16:55;13.40;;;11.93;;
30462;SDS011;17256;43.618;25.336;2022-10-16T01:19:36;17.40;;;13.33;;
30462;SDS011;17256;43.618;25.336;2022-10-16T01:22:29;16.30;;;14.60;;
30462;SDS011;17256;43.618;25.336;2022-10-16T01:25:05;17.00;;;15.17;;
30462;SDS011;17256;43.618;25.336;2022-10-16T01:27:37;20.27;;;17.87;;
30462;SDS011;17256;43.618;25.336;2022-10-16T01:32:44;22.70;;;20.17;;
30462;SDS011;17256;43.618;25.336;2022-10-16T01:37:54;16.83;;;15.00;;
30462;SDS011;17256;43.618;25.336;2022-10-16T01:40:34;12.30;;;11.13;;
30462;SDS011;17256;43.618;25.336;2022-10-16T01:43:06;10.83;;;9.83;;
30462;SDS011;17256;43.618;25.336;2022-10-16T01:45:35;12.77;;;10.47;;
30462;SDS011;17256;43.618;25.336;2022-10-16T01:48:02;17.63;;;11.53;;
30462;SDS011;17256;43.618;25.336;2022-10-16T01:50:34;12.00;;;10.80;;
30462;SDS011;17256;43.618;25.336;2022-10-16T01:53:02;13.47;;;12.07;;
30462;SDS011;17256;43.618;25.336;2022-10-16T01:55:31;13.57;;;12.03;;
30462;SDS011;17256;43.618;25.336;2022-10-16T01:58:03;18.13;;;14.10;;
30462;SDS011;17256;43.618;25.336;2022-10-16T02:00:32;15.93;;;13.50;;
30462;SDS011;17256;43.618;25.336;2022-10-16T02:03:01;15.90;;;14.30;;
30462;SDS011;17256;43.618;25.336;2022-10-16T02:08:19;18.60;;;16.37;;
30462;SDS011;17256;43.618;25.336;2022-10-16T02:10:47;18.10;;;15.93;;
30462;SDS011;17256;43.618;25.336;2022-10-16T02:13:16;17.53;;;15.70;;
30462;SDS011;17256;43.618;25.336;2022-10-16T02:15:48;18.27;;;16.47;;
30462;SDS011;17256;43.618;25.336;2022-10-16T02:18:13;17.93;;;15.70;;
30462;SDS011;17256;43.618;25.336;2022-10-16T02:20:43;18.67;;;16.37;;
30462;SDS011;17256;43.618;25.336;2022-10-16T02:23:18;19.80;;;17.60;;
30462;SDS011;17256;43.618;25.336;2022-10-16T02:25:52;22.30;;;20.00;;
30462;SDS011;17256;43.618;25.336;2022-10-16T02:28:22;24.77;;;20.53;;
30462;SDS011;17256;43.618;25.336;2022-10-16T02:30:56;23.20;;;19.90;;
30462;SDS011;17256;43.618;25.336;2022-10-16T02:33:25;24.27;;;21.70;;
30462;SDS011;17256;43.618;25.336;2022-10-16T02:35:52;25.37;;;20.63;;
30462;SDS011;17256;43.618;25.336;2022-10-16T02:38:20;22.97;;;19.83;;
30462;SDS011;17256;43.618;25.336;2022-10-16T02:40:46;23.30;;;20.73;;
30462;SDS011;17256;43.618;25.336;2022-10-16T02:43:13;25.10;;;22.07;;
30462;SDS011;17256;43.618;25.336;2022-10-16T02:45:39;27.03;;;23.50;;
30462;SDS011;17256;43.618;25.336;2022-10-16T02:48:05;29.17;;;23.17;;
30462;SDS011;17256;43.618;25.336;2022-10-16T02:50:31;22.87;;;19.80;;
30462;SDS011;17256;43.618;25.336;2022-10-16T02:52:57;21.53;;;19.37;;
30462;SDS011;17256;43.618;25.336;2022-10-16T02:55:24;20.90;;;17.40;;
30462;SDS011;17256;43.618;25.336;2022-10-16T02:57:51;17.30;;;15.50;;
30462;SDS011;17256;43.618;25.336;2022-10-16T03:00:17;19.33;;;16.37;;
30462;SDS011;17256;43.618;25.336;2022-10-16T03:02:43;29.30;;;18.07;;
30462;SDS011;17256;43.618;25.336;2022-10-16T03:05:10;30.57;;;22.73;;
30462;SDS011;17256;43.618;25.336;2022-10-16T03:07:36;52.27;;;23.33;;
30462;SDS011;17256;43.618;25.336;2022-10-16T03:10:02;41.63;;;26.13;;
30462;SDS011;17256;43.618;25.336;2022-10-16T03:12:28;27.00;;;24.10;;
30462;SDS011;17256;43.618;25.336;2022-10-16T03:15:04;35.33;;;25.50;;
30462;SDS011;17256;43.618;25.336;2022-10-16T03:17:31;39.33;;;25.73;;
30462;SDS011;17256;43.618;25.336;2022-10-16T03:19:57;85.47;;;26.57;;
30462;SDS011;17256;43.618;25.336;2022-10-16T03:22:23;97.27;;;28.80;;
30462;SDS011;17256;43.618;25.336;2022-10-16T03:24:49;156.70;;;30.03;;
30462;SDS011;17256;43.618;25.336;2022-10-16T03:27:15;84.57;;;27.83;;
30462;SDS011;17256;43.618;25.336;2022-10-16T03:29:41;59.03;;;27.73;;
30462;SDS011;17256;43.618;25.336;2022-10-16T03:32:07;33.23;;;25.17;;
30462;SDS011;17256;43.618;25.336;2022-10-16T03:34:35;57.93;;;27.27;;
30462;SDS011;17256;43.618;25.336;2022-10-16T03:37:01;32.17;;;25.90;;
30462;SDS011;17256;43.618;25.336;2022-10-16T03:39:28;31.97;;;26.00;;
30462;SDS011;17256;43.618;25.336;2022-10-16T03:41:54;28.37;;;25.20;;
30462;SDS011;17256;43.618;25.336;2022-10-16T03:44:19;32.00;;;25.03;;
30462;SDS011;17256;43.618;25.336;2022-10-16T03:46:46;29.17;;;24.87;;
30462;SDS011;17256;43.618;25.336;2022-10-16T03:49:11;30.90;;;25.00;;
30462;SDS011;17256;43.618;25.336;2022-10-16T03:51:37;26.17;;;22.83;;
30462;SDS011;17256;43.618;25.336;2022-10-16T03:54:03;25.60;;;22.83;;
30462;SDS011;17256;43.618;25.336;2022-10-16T03:56:29;35.97;;;25.27;;
30462;SDS011;17256;43.618;25.336;2022-10-16T03:58:54;46.87;;;23.83;;
30462;SDS011;17256;43.618;25.336;2022-10-16T04:01:20;25.57;;;22.10;;
30462;SDS011;17256;43.618;25.336;2022-10-16T04:06:15;28.90;;;20.90;;
30462;SDS011;17256;43.618;25.336;2022-10-16T04:08:42;25.13;;;20.70;;
30462;SDS011;17256;43.618;25.336;2022-10-16T04:11:08;21.83;;;19.53;;
30462;SDS011;17256;43.618;25.336;2022-10-16T04:13:34;22.40;;;19.83;;
30462;SDS011;17256;43.618;25.336;2022-10-16T04:16:00;23.43;;;21.00;;
30462;SDS011;17256;43.618;25.336;2022-10-16T04:18:26;24.40;;;19.63;;
30462;SDS011;17256;43.618;25.336;2022-10-16T04:20:52;22.67;;;19.97;;
30462;SDS011;17256;43.618;25.336;2022-10-16T04:23:19;26.93;;;21.83;;
30462;SDS011;17256;43.618;25.336;2022-10-16T04:25:44;23.43;;;20.37;;
30462;SDS011;17256;43.618;25.336;2022-10-16T04:28:11;22.93;;;20.60;;
30462;SDS011;17256;43.618;25.336;2022-10-16T04:30:39;22.23;;;20.03;;
30462;SDS011;17256;43.618;25.336;2022-10-16T04:33:05;26.90;;;22.20;;
30462;SDS011;17256;43.618;25.336;2022-10-16T04:35:31;27.47;;;21.93;;
30462;SDS011;17256;43.618;25.336;2022-10-16T04:37:57;23.57;;;21.10;;
30462;SDS011;17256;43.618;25.336;2022-10-16T04:40:23;24.80;;;21.93;;
30462;SDS011;17256;43.618;25.336;2022-10-16T04:42:49;23.97;;;21.43;;
30462;SDS011;17256;43.618;25.336;2022-10-16T04:45:15;24.60;;;21.50;;
30462;SDS011;17256;43.618;25.336;2022-10-16T04:47:41;24.00;;;20.97;;
30462;SDS011;17256;43.618;25.336;2022-10-16T04:50:13;24.17;;;21.30;;
30462;SDS011;17256;43.618;25.336;2022-10-16T04:52:38;23.10;;;20.80;;
30462;SDS011;17256;43.618;25.336;2022-10-16T04:55:04;22.83;;;20.47;;
30462;SDS011;17256;43.618;25.336;2022-10-16T04:57:30;25.07;;;20.00;;
30462;SDS011;17256;43.618;25.336;2022-10-16T04:59:56;23.30;;;21.00;;
30462;SDS011;17256;43.618;25.336;2022-10-16T05:02:31;24.30;;;21.70;;
30462;SDS011;17256;43.618;25.336;2022-10-16T05:04:57;24.23;;;21.67;;
30462;SDS011;17256;43.618;25.336;2022-10-16T05:07:22;22.77;;;20.67;;
30462;SDS011;17256;43.618;25.336;2022-10-16T05:09:48;25.20;;;22.23;;
30462;SDS011;17256;43.618;25.336;2022-10-16T05:12:14;24.77;;;22.20;;
30462;SDS011;17256;43.618;25.336;2022-10-16T05:14:39;37.20;;;23.83;;
30462;SDS011;17256;43.618;25.336;2022-10-16T05:17:05;51.30;;;24.30;;
30462;SDS011;17256;43.618;25.336;2022-10-16T05:19:31;65.53;;;25.20;;
30462;SDS011;17256;43.618;25.336;2022-10-16T05:21:57;91.80;;;26.83;;
30462;SDS011;17256;43.618;25.336;2022-10-16T05:24:22;130.60;;;28.63;;
30462;SDS011;17256;43.618;25.336;2022-10-16T05:26:49;76.70;;;26.97;;
30462;SDS011;17256;43.618;25.336;2022-10-16T05:29:15;66.13;;;27.57;;
30462;SDS011;17256;43.618;25.336;2022-10-16T05:31:40;37.20;;;26.97;;
30462;SDS011;17256;43.618;25.336;2022-10-16T05:34:06;70.03;;;28.77;;
30462;SDS011;17256;43.618;25.336;2022-10-16T05:36:32;70.93;;;31.83;;
30462;SDS011;17256;43.618;25.336;2022-10-16T05:38:59;99.77;;;30.77;;
30462;SDS011;17256;43.618;25.336;2022-10-16T05:41:24;94.53;;;32.07;;
30462;SDS011;17256;43.618;25.336;2022-10-16T05:43:51;151.43;;;31.93;;
30462;SDS011;17256;43.618;25.336;2022-10-16T05:46:18;93.13;;;29.27;;
30462;SDS011;17256;43.618;25.336;2022-10-16T05:48:44;167.87;;;33.57;;
30462;SDS011;17256;43.618;25.336;2022-10-16T05:51:11;109.10;;;32.60;;
30462;SDS011;17256;43.618;25.336;2022-10-16T05:53:39;212.47;;;36.47;;
30462;SDS011;17256;43.618;25.336;2022-10-16T05:56:05;98.10;;;31.13;;
30462;SDS011;17256;43.618;25.336;2022-10-16T05:58:33;124.37;;;31.73;;
30462;SDS011;17256;43.618;25.336;2022-10-16T06:01:02;182.50;;;31.03;;
30462;SDS011;17256;43.618;25.336;2022-10-16T06:03:35;192.30;;;31.87;;
30462;SDS011;17256;43.618;25.336;2022-10-16T06:06:14;116.93;;;30.13;;
30462;SDS011;17256;43.618;25.336;2022-10-16T06:08:42;161.20;;;30.67;;
30462;SDS011;17256;43.618;25.336;2022-10-16T06:11:09;99.63;;;27.80;;
30462;SDS011;17256;43.618;25.336;2022-10-16T06:13:38;169.23;;;32.53;;
30462;SDS011;17256;43.618;25.336;2022-10-16T06:16:07;108.03;;;29.60;;
30462;SDS011;17256;43.618;25.336;2022-10-16T06:18:33;144.37;;;28.93;;
30462;SDS011;17256;43.618;25.336;2022-10-16T06:20:58;125.37;;;28.07;;
30462;SDS011;17256;43.618;25.336;2022-10-16T06:23:24;36.57;;;25.07;;
30462;SDS011;17256;43.618;25.336;2022-10-16T06:25:52;157.60;;;30.40;;
30462;SDS011;17256;43.618;25.336;2022-10-16T06:28:18;117.13;;;27.87;;
30462;SDS011;17256;43.618;25.336;2022-10-16T06:30:44;56.07;;;29.67;;
30462;SDS011;17256;43.618;25.336;2022-10-16T06:33:10;49.83;;;27.37;;
30462;SDS011;17256;43.618;25.336;2022-10-16T06:35:36;58.73;;;24.80;;
30462;SDS011;17256;43.618;25.336;2022-10-16T06:38:02;58.27;;;23.77;;
30462;SDS011;17256;43.618;25.336;2022-10-16T06:40:27;34.70;;;21.87;;
30462;SDS011;17256;43.618;25.336;2022-10-16T06:42:54;60.67;;;24.40;;
30462;SDS011;17256;43.618;25.336;2022-10-16T06:45:20;79.70;;;22.90;;
30462;SDS011;17256;43.618;25.336;2022-10-16T06:47:47;25.67;;;20.83;;
30462;SDS011;17256;43.618;25.336;2022-10-16T06:50:12;37.67;;;22.40;;
30462;SDS011;17256;43.618;25.336;2022-10-16T06:52:38;47.00;;;21.00;;
30462;SDS011;17256;43.618;25.336;2022-10-16T06:55:04;33.43;;;21.57;;
30462;SDS011;17256;43.618;25.336;2022-10-16T06:57:30;32.07;;;21.23;;
30462;SDS011;17256;43.618;25.336;2022-10-16T06:59:57;30.87;;;20.80;;
30462;SDS011;17256;43.618;25.336;2022-10-16T07:02:23;23.77;;;21.07;;
30462;SDS011;17256;43.618;25.336;2022-10-16T07:07:17;26.73;;;21.30;;
30462;SDS011;17256;43.618;25.336;2022-10-16T07:09:43;35.47;;;22.97;;
30462;SDS011;17256;43.618;25.336;2022-10-16T07:12:09;27.67;;;23.07;;
30462;SDS011;17256;43.618;25.336;2022-10-16T07:14:34;27.47;;;21.57;;
30462;SDS011;17256;43.618;25.336;2022-10-16T07:17:02;27.03;;;23.07;;
30462;SDS011;17256;43.618;25.336;2022-10-16T07:19:27;25.80;;;23.17;;
30462;SDS011;17256;43.618;25.336;2022-10-16T07:21:53;25.27;;;22.67;;
30462;SDS011;17256;43.618;25.336;2022-10-16T07:24:20;30.83;;;23.93;;
30462;SDS011;17256;43.618;25.336;2022-10-16T07:26:45;27.57;;;23.23;;
30462;SDS011;17256;43.618;25.336;2022-10-16T07:29:12;36.07;;;32.27;;
30462;SDS011;17256;43.618;25.336;2022-10-16T07:31:40;38.73;;;34.33;;
30462;SDS011;17256;43.618;25.336;2022-10-16T07:34:07;52.87;;;36.30;;
30462;SDS011;17256;43.618;25.336;2022-10-16T07:36:33;38.17;;;34.07;;
30462;SDS011;17256;43.618;25.336;2022-10-16T07:38:59;37.57;;;28.90;;
30462;SDS011;17256;43.618;25.336;2022-10-16T07:41:25;28.03;;;24.17;;
30462;SDS011;17256;43.618;25.336;2022-10-16T07:43:51;25.43;;;22.83;;
30462;SDS011;17256;43.618;25.336;2022-10-16T07:46:19;29.67;;;26.60;;
30462;SDS011;17256;43.618;25.336;2022-10-16T07:48:46;30.00;;;27.00;;
30462;SDS011;17256;43.618;25.336;2022-10-16T07:51:20;29.60;;;26.40;;
30462;SDS011;17256;43.618;25.336;2022-10-16T07:53:47;29.40;;;26.37;;
30462;SDS011;17256;43.618;25.336;2022-10-16T07:56:13;28.27;;;24.53;;
30462;SDS011;17256;43.618;25.336;2022-10-16T07:58:40;27.77;;;23.47;;
30462;SDS011;17256;43.618;25.336;2022-10-16T08:01:07;22.90;;;20.70;;
30462;SDS011;17256;43.618;25.336;2022-10-16T08:03:35;22.03;;;20.00;;
30462;SDS011;17256;43.618;25.336;2022-10-16T08:06:01;19.83;;;17.73;;
30462;SDS011;17256;43.618;25.336;2022-10-16T08:08:27;20.70;;;17.90;;
30462;SDS011;17256;43.618;25.336;2022-10-16T08:10:53;20.60;;;18.57;;
30462;SDS011;17256;43.618;25.336;2022-10-16T08:13:19;19.40;;;17.53;;
30462;SDS011;17256;43.618;25.336;2022-10-16T08:15:45;21.83;;;19.37;;
30462;SDS011;17256;43.618;25.336;2022-10-16T08:18:12;18.87;;;16.97;;
30462;SDS011;17256;43.618;25.336;2022-10-16T08:20:39;18.70;;;16.00;;
30462;SDS011;17256;43.618;25.336;2022-10-16T08:23:05;17.00;;;15.30;;
30462;SDS011;17256;43.618;25.336;2022-10-16T08:25:34;15.10;;;13.60;;
30462;SDS011;17256;43.618;25.336;2022-10-16T08:28:03;15.80;;;14.20;;
30462;SDS011;17256;43.618;25.336;2022-10-16T08:30:32;16.10;;;14.50;;
30462;SDS011;17256;43.618;25.336;2022-10-16T08:32:58;15.60;;;13.97;;
30462;SDS011;17256;43.618;25.336;2022-10-16T08:35:24;13.97;;;12.53;;
30462;SDS011;17256;43.618;25.336;2022-10-16T08:37:50;13.67;;;12.23;;
30462;SDS011;17256;43.618;25.336;2022-10-16T08:40:34;13.83;;;12.53;;
30462;SDS011;17256;43.618;25.336;2022-10-16T08:43:16;13.83;;;11.27;;
30462;SDS011;17256;43.618;25.336;2022-10-16T08:45:57;11.10;;;10.00;;
30462;SDS011;17256;43.618;25.336;2022-10-16T08:48:46;10.97;;;9.87;;
30462;SDS011;17256;43.618;25.336;2022-10-16T08:51:20;11.13;;;9.67;;
30462;SDS011;17256;43.618;25.336;2022-10-16T08:53:58;10.03;;;9.03;;
30462;SDS011;17256;43.618;25.336;2022-10-16T08:58:58;9.07;;;7.03;;
30462;SDS011;17256;43.618;25.336;2022-10-16T09:01:32;9.77;;;7.27;;
30462;SDS011;17256;43.618;25.336;2022-10-16T09:04:08;9.00;;;8.20;;
30462;SDS011;17256;43.618;25.336;2022-10-16T09:06:47;10.53;;;7.53;;
30462;SDS011;17256;43.618;25.336;2022-10-16T09:12:19;10.17;;;8.53;;
30462;SDS011;17256;43.618;25.336;2022-10-16T09:17:52;9.57;;;7.13;;
30462;SDS011;17256;43.618;25.336;2022-10-16T09:25:48;7.67;;;6.10;;
30462;SDS011;17256;43.618;25.336;2022-10-16T09:28:16;7.37;;;6.67;;
30462;SDS011;17256;43.618;25.336;2022-10-16T09:30:43;7.50;;;6.80;;
30462;SDS011;17256;43.618;25.336;2022-10-16T09:33:12;11.57;;;6.00;;
30462;SDS011;17256;43.618;25.336;2022-10-16T09:35:43;10.23;;;6.23;;
30462;SDS011;17256;43.618;25.336;2022-10-16T09:38:32;7.90;;;7.10;;
30462;SDS011;17256;43.618;25.336;2022-10-16T09:40:59;6.60;;;5.87;;
30462;SDS011;17256;43.618;25.336;2022-10-16T09:46:31;8.07;;;7.10;;
30462;SDS011;17256;43.618;25.336;2022-10-16T09:49:01;7.33;;;6.60;;
30462;SDS011;17256;43.618;25.336;2022-10-16T09:54:01;12.43;;;8.30;;
30462;SDS011;17256;43.618;25.336;2022-10-16T09:56:34;8.07;;;7.27;;
30462;SDS011;17256;43.618;25.336;2022-10-16T09:59:14;8.80;;;6.97;;
30462;SDS011;17256;43.618;25.336;2022-10-16T10:01:52;8.10;;;6.93;;
30462;SDS011;17256;43.618;25.336;2022-10-16T10:04:19;7.37;;;6.63;;
30462;SDS011;17256;43.618;25.336;2022-10-16T10:06:48;8.13;;;7.20;;
30462;SDS011;17256;43.618;25.336;2022-10-16T10:09:28;9.67;;;7.13;;
30462;SDS011;17256;43.618;25.336;2022-10-16T10:12:00;10.70;;;9.70;;
30462;SDS011;17256;43.618;25.336;2022-10-16T10:14:30;7.43;;;6.67;;
30462;SDS011;17256;43.618;25.336;2022-10-16T10:19:41;9.10;;;5.73;;
30462;SDS011;17256;43.618;25.336;2022-10-16T10:22:22;8.73;;;6.50;;
30462;SDS011;17256;43.618;25.336;2022-10-16T10:30:22;9.13;;;7.23;;
30462;SDS011;17256;43.618;25.336;2022-10-16T10:41:10;6.57;;;4.73;;
30462;SDS011;17256;43.618;25.336;2022-10-16T10:46:34;7.80;;;4.03;;
30462;SDS011;17256;43.618;25.336;2022-10-16T10:49:13;5.23;;;4.43;;
30462;SDS011;17256;43.618;25.336;2022-10-16T10:51:56;7.60;;;4.73;;
30462;SDS011;17256;43.618;25.336;2022-10-16T10:59:46;5.87;;;5.30;;
30462;SDS011;17256;43.618;25.336;2022-10-16T11:07:30;7.83;;;5.80;;
30462;SDS011;17256;43.618;25.336;2022-10-16T11:10:08;7.10;;;5.90;;
30462;SDS011;17256;43.618;25.336;2022-10-16T11:12:42;6.63;;;5.93;;
30462;SDS011;17256;43.618;25.336;2022-10-16T11:15:12;6.77;;;5.83;;
30462;SDS011;17256;43.618;25.336;2022-10-16T11:17:42;6.50;;;5.50;;
30462;SDS011;17256;43.618;25.336;2022-10-16T11:20:18;9.13;;;6.70;;
30462;SDS011;17256;43.618;25.336;2022-10-16T11:23:02;6.07;;;5.47;;
30462;SDS011;17256;43.618;25.336;2022-10-16T11:25:50;7.40;;;6.53;;
30462;SDS011;17256;43.618;25.336;2022-10-16T11:28:27;8.13;;;5.63;;
30462;SDS011;17256;43.618;25.336;2022-10-16T11:31:07;6.53;;;5.90;;
30462;SDS011;17256;43.618;25.336;2022-10-16T11:43:49;8.00;;;5.50;;
30462;SDS011;17256;43.618;25.336;2022-10-16T11:46:28;16.60;;;14.80;;
30462;SDS011;17256;43.618;25.336;2022-10-16T11:57:41;7.17;;;5.77;;
30462;SDS011;17256;43.618;25.336;2022-10-16T12:00:28;5.37;;;4.93;;
30462;SDS011;17256;43.618;25.336;2022-10-16T12:06:15;5.77;;;4.93;;
30462;SDS011;17256;43.618;25.336;2022-10-16T12:08:45;9.33;;;5.33;;
30462;SDS011;17256;43.618;25.336;2022-10-16T12:16:37;9.37;;;5.53;;
30462;SDS011;17256;43.618;25.336;2022-10-16T12:19:15;6.27;;;5.10;;
30462;SDS011;17256;43.618;25.336;2022-10-16T12:21:43;7.63;;;5.90;;
30462;SDS011;17256;43.618;25.336;2022-10-16T12:26:58;7.07;;;5.17;;
30462;SDS011;17256;43.618;25.336;2022-10-16T12:32:04;7.20;;;5.57;;
30462;SDS011;17256;43.618;25.336;2022-10-16T12:34:45;8.20;;;5.97;;
30462;SDS011;17256;43.618;25.336;2022-10-16T12:39:45;7.83;;;6.67;;
30462;SDS011;17256;43.618;25.336;2022-10-16T12:44:55;7.67;;;6.03;;
30462;SDS011;17256;43.618;25.336;2022-10-16T12:49:56;6.93;;;6.23;;
30462;SDS011;17256;43.618;25.336;2022-10-16T12:54:55;9.10;;;6.03;;
30462;SDS011;17256;43.618;25.336;2022-10-16T13:00:21;6.77;;;6.10;;
30462;SDS011;17256;43.618;25.336;2022-10-16T13:05:44;14.73;;;8.00;;
30462;SDS011;17256;43.618;25.336;2022-10-16T13:14:17;7.10;;;6.03;;
30462;SDS011;17256;43.618;25.336;2022-10-16T13:30:17;13.17;;;6.70;;
30462;SDS011;17256;43.618;25.336;2022-10-16T13:32:46;9.87;;;5.90;;
30462;SDS011;17256;43.618;25.336;2022-10-16T13:35:21;6.57;;;5.97;;
30462;SDS011;17256;43.618;25.336;2022-10-16T13:38:03;14.97;;;6.50;;
30462;SDS011;17256;43.618;25.336;2022-10-16T13:40:30;6.53;;;5.87;;
30462;SDS011;17256;43.618;25.336;2022-10-16T13:42:56;11.37;;;5.63;;
30462;SDS011;17256;43.618;25.336;2022-10-16T13:45:25;9.13;;;5.53;;
30462;SDS011;17256;43.618;25.336;2022-10-16T13:48:01;12.47;;;5.60;;
30462;SDS011;17256;43.618;25.336;2022-10-16T13:50:29;5.83;;;5.30;;
30462;SDS011;17256;43.618;25.336;2022-10-16T13:53:05;6.93;;;5.43;;
30462;SDS011;17256;43.618;25.336;2022-10-16T13:55:33;7.80;;;5.50;;
30462;SDS011;17256;43.618;25.336;2022-10-16T13:58:07;6.23;;;5.47;;
30462;SDS011;17256;43.618;25.336;2022-10-16T14:00:37;8.10;;;5.90;;
30462;SDS011;17256;43.618;25.336;2022-10-16T14:03:04;6.83;;;6.10;;
30462;SDS011;17256;43.618;25.336;2022-10-16T14:05:33;8.27;;;5.77;;
30462;SDS011;17256;43.618;25.336;2022-10-16T14:07:59;9.47;;;7.80;;
30462;SDS011;17256;43.618;25.336;2022-10-16T14:10:26;6.00;;;5.40;;
30462;SDS011;17256;43.618;25.336;2022-10-16T14:12:56;5.80;;;5.30;;
30462;SDS011;17256;43.618;25.336;2022-10-16T14:15:23;6.87;;;5.73;;
30462;SDS011;17256;43.618;25.336;2022-10-16T14:17:50;7.07;;;5.80;;
30462;SDS011;17256;43.618;25.336;2022-10-16T14:20:17;10.03;;;6.70;;
30462;SDS011;17256;43.618;25.336;2022-10-16T14:22:44;8.97;;;6.53;;
30462;SDS011;17256;43.618;25.336;2022-10-16T14:28:02;7.43;;;5.33;;
30462;SDS011;17256;43.618;25.336;2022-10-16T14:30:54;7.40;;;6.10;;
30462;SDS011;17256;43.618;25.336;2022-10-16T14:33:31;9.33;;;6.27;;
30462;SDS011;17256;43.618;25.336;2022-10-16T14:36:19;9.03;;;6.37;;
30462;SDS011;17256;43.618;25.336;2022-10-16T14:41:21;10.30;;;7.60;;
30462;SDS011;17256;43.618;25.336;2022-10-16T14:43:52;8.00;;;6.27;;
30462;SDS011;17256;43.618;25.336;2022-10-16T14:46:21;7.17;;;6.43;;
30462;SDS011;17256;43.618;25.336;2022-10-16T14:51:53;9.70;;;6.80;;
30462;SDS011;17256;43.618;25.336;2022-10-16T14:54:20;10.37;;;6.63;;
30462;SDS011;17256;43.618;25.336;2022-10-16T14:56:53;8.13;;;6.87;;
30462;SDS011;17256;43.618;25.336;2022-10-16T14:59:34;7.43;;;6.47;;
30462;SDS011;17256;43.618;25.336;2022-10-16T15:02:02;9.17;;;6.87;;
30462;SDS011;17256;43.618;25.336;2022-10-16T15:04:54;15.63;;;8.73;;
30462;SDS011;17256;43.618;25.336;2022-10-16T15:07:20;9.90;;;7.80;;
30462;SDS011;17256;43.618;25.336;2022-10-16T15:09:46;13.63;;;9.07;;
30462;SDS011;17256;43.618;25.336;2022-10-16T15:12:12;13.03;;;10.37;;
30462;SDS011;17256;43.618;25.336;2022-10-16T15:14:44;15.20;;;10.53;;
30462;SDS011;17256;43.618;25.336;2022-10-16T15:17:10;14.20;;;9.50;;
30462;SDS011;17256;43.618;25.336;2022-10-16T15:19:36;16.57;;;10.47;;
30462;SDS011;17256;43.618;25.336;2022-10-16T15:22:02;16.57;;;11.23;;
30462;SDS011;17256;43.618;25.336;2022-10-16T15:24:28;14.43;;;11.63;;
30462;SDS011;17256;43.618;25.336;2022-10-16T15:26:53;20.83;;;14.83;;
30462;SDS011;17256;43.618;25.336;2022-10-16T15:29:19;39.53;;;23.23;;
30462;SDS011;17256;43.618;25.336;2022-10-16T15:31:45;40.50;;;25.17;;
30462;SDS011;17256;43.618;25.336;2022-10-16T15:34:14;42.87;;;28.97;;
30462;SDS011;17256;43.618;25.336;2022-10-16T15:36:40;38.10;;;24.17;;
30462;SDS011;17256;43.618;25.336;2022-10-16T15:39:13;30.57;;;18.50;;
30462;SDS011;17256;43.618;25.336;2022-10-16T15:41:40;27.70;;;17.60;;
30462;SDS011;17256;43.618;25.336;2022-10-16T15:44:06;22.73;;;14.83;;
30462;SDS011;17256;43.618;25.336;2022-10-16T15:46:32;21.23;;;15.23;;
30462;SDS011;17256;43.618;25.336;2022-10-16T15:48:59;21.67;;;14.20;;
30462;SDS011;17256;43.618;25.336;2022-10-16T15:51:26;14.17;;;11.57;;
30462;SDS011;17256;43.618;25.336;2022-10-16T15:53:58;11.43;;;10.10;;
30462;SDS011;17256;43.618;25.336;2022-10-16T15:56:26;13.47;;;10.33;;
30462;SDS011;17256;43.618;25.336;2022-10-16T15:58:53;14.10;;;10.33;;
30462;SDS011;17256;43.618;25.336;2022-10-16T16:01:20;11.07;;;9.00;;
30462;SDS011;17256;43.618;25.336;2022-10-16T16:03:47;10.30;;;9.27;;
30462;SDS011;17256;43.618;25.336;2022-10-16T16:06:17;18.33;;;10.27;;
30462;SDS011;17256;43.618;25.336;2022-10-16T16:08:42;12.13;;;10.33;;
30462;SDS011;17256;43.618;25.336;2022-10-16T16:11:09;13.27;;;9.80;;
30462;SDS011;17256;43.618;25.336;2022-10-16T16:13:36;12.53;;;10.80;;
30462;SDS011;17256;43.618;25.336;2022-10-16T16:16:10;13.80;;;10.93;;
30462;SDS011;17256;43.618;25.336;2022-10-16T16:18:41;14.30;;;9.53;;
30462;SDS011;17256;43.618;25.336;2022-10-16T16:21:09;14.27;;;10.07;;
30462;SDS011;17256;43.618;25.336;2022-10-16T16:23:36;14.53;;;10.10;;
30462;SDS011;17256;43.618;25.336;2022-10-16T16:26:20;14.13;;;10.23;;
30462;SDS011;17256;43.618;25.336;2022-10-16T16:28:52;10.87;;;9.70;;
30462;SDS011;17256;43.618;25.336;2022-10-16T16:31:19;13.00;;;11.33;;
30462;SDS011;17256;43.618;25.336;2022-10-16T16:33:46;13.97;;;11.70;;
30462;SDS011;17256;43.618;25.336;2022-10-16T16:36:12;14.83;;;11.53;;
30462;SDS011;17256;43.618;25.336;2022-10-16T16:38:38;12.23;;;11.03;;
30462;SDS011;17256;43.618;25.336;2022-10-16T16:41:17;15.70;;;11.17;;
30462;SDS011;17256;43.618;25.336;2022-10-16T16:43:46;14.77;;;12.43;;
30462;SDS011;17256;43.618;25.336;2022-10-16T16:46:13;12.73;;;11.43;;
30462;SDS011;17256;43.618;25.336;2022-10-16T16:48:40;13.67;;;11.23;;
30462;SDS011;17256;43.618;25.336;2022-10-16T16:51:07;16.23;;;12.33;;